Time;durP1;ratioP1;P1;durP2;ratioP2;P2;SDS_P1;SDS_P2;PMS_P1;PMS_P2;Temp;Humidity;BMP_temperature;BMP_pressure;BME280_temperature;BME280_humidity;BME280_pressure;Samples;Min_cycle;Max_cycle;Signal;HPM_P1;HPM_P2
2023/08/07 00:01:45;;;;;;;19.30;12.15;;;;;;;21.88;55.01;101409.72;5044752;28;20095;-34
2023/08/07 00:04:11;;;;;;;18.52;11.93;;;;;;;21.89;55.33;101409.53;5043730;28;20132;-35
2023/08/07 00:06:38;;;;;;;18.75;11.93;;;;;;;21.86;55.50;101404.47;5042886;28;20516;-35
2023/08/07 00:09:05;;;;;;;20.45;11.50;;;;;;;21.86;55.29;101407.16;5044176;28;20056;-35
2023/08/07 00:11:31;;;;;;;18.77;12.45;;;;;;;21.86;55.41;101404.47;5043536;28;20132;-35
2023/08/07 00:13:58;;;;;;;18.45;10.93;;;;;;;21.86;55.25;101417.13;5042320;28;20272;-35
2023/08/07 00:16:25;;;;;;;18.65;10.98;;;;;;;21.85;nan;101405.50;5043392;28;20481;-35
2023/08/07 00:18:55;;;;;;;17.83;11.30;;;;;;;21.84;55.46;101400.28;5041556;28;20058;-35
2023/08/07 00:21:23;;;;;;;16.17;10.07;;;;;;;21.84;55.47;101403.81;5041457;28;20083;-35
2023/08/07 00:23:50;;;;;;;17.42;10.30;;;;;;;21.84;55.35;101402.97;5039683;28;20974;-35
2023/08/07 00:26:16;;;;;;;17.40;10.30;;;;;;;21.83;55.30;101404.81;5039926;28;20498;-35
2023/08/07 00:28:43;;;;;;;16.67;10.10;;;;;;;21.83;55.36;101409.34;5037751;28;20056;-35
2023/08/07 00:31:10;;;;;;;15.88;10.20;;;;;;;21.82;55.28;101411.22;5038258;28;20060;-35
2023/08/07 00:33:37;;;;;;;14.20;8.73;;;;;;;21.82;55.11;101413.06;5035640;28;20060;-35
2023/08/07 00:36:04;;;;;;;16.48;9.93;;;;;;;21.82;55.32;101429.25;5037049;28;20780;-35
2023/08/07 00:38:31;;;;;;;18.25;9.35;;;;;;;21.81;54.89;101430.28;5042911;28;20045;-34
2023/08/07 00:40:59;;;;;;;14.68;8.30;;;;;;;21.81;55.26;101424.88;5042237;28;20068;-34
2023/08/07 00:43:26;;;;;;;14.48;8.73;;;;;;;21.80;55.24;101423.19;5040346;28;20044;-35
2023/08/07 00:45:53;;;;;;;15.88;8.00;;;;;;;21.80;55.42;101423.19;5039550;28;20048;-35
2023/08/07 00:48:20;;;;;;;13.50;8.38;;;;;;;21.78;55.12;101423.34;5040472;28;20064;-35
2023/08/07 00:50:48;;;;;;;14.90;8.13;;;;;;;21.77;55.46;101423.50;5042243;28;20619;-35
2023/08/07 00:53:14;;;;;;;15.60;8.20;;;;;;;21.78;55.24;101426.03;5039308;28;20464;-35
2023/08/07 00:55:42;;;;;;;13.02;8.02;;;;;;;21.77;55.47;101420.81;5041433;28;20139;-35
2023/08/07 00:58:09;;;;;;;13.73;7.93;;;;;;;21.75;55.34;101420.13;5038747;28;20131;-35
2023/08/07 01:00:35;;;;;;;15.38;7.95;;;;;;;21.74;55.26;101421.97;5039787;28;20603;-35
2023/08/07 01:03:06;;;;;;;12.63;7.80;;;;;;;21.74;55.57;101423.84;5037913;28;20072;-35
2023/08/07 01:05:34;;;;;;;14.32;8.18;;;;;;;21.75;55.50;101422.81;5041284;28;20053;-35
2023/08/07 01:08:01;;;;;;;13.57;7.72;;;;;;;21.75;55.63;101412.03;5043671;28;20460;-35
2023/08/07 01:10:51;;;;;;;12.15;7.22;;;;;;;21.70;55.65;101415.22;5039884;28;20049;-35
2023/08/07 01:13:32;;;;;;;10.80;6.57;;;;;;;21.71;55.37;101416.94;5024916;28;20464;-35
2023/08/07 01:16:07;;;;;;;13.25;6.90;;;;;;;21.72;55.58;101417.78;5041849;28;20049;-35
2023/08/07 01:18:36;;;;;;;14.98;7.25;;;;;;;21.71;55.50;101424.16;5044536;28;20041;-35
2023/08/07 01:21:03;;;;;;;12.52;7.03;;;;;;;21.70;55.24;101420.63;5040441;28;20095;-35
2023/08/07 01:23:30;;;;;;;12.40;6.88;;;;;;;21.69;55.20;101432.44;5046426;28;20053;-35
2023/08/07 01:25:57;;;;;;;10.70;6.68;;;;;;;21.69;55.52;101449.47;5039953;28;20263;-35
2023/08/07 01:28:38;;;;;;;13.68;6.57;;;;;;;21.68;55.56;101446.94;5038727;28;20098;-35
2023/08/07 01:31:10;;;;;;;10.95;6.53;;;;;;;21.67;55.37;101435.31;5040936;28;20048;-34
2023/08/07 01:33:47;;;;;;;10.48;6.97;;;;;;;21.67;55.49;101440.69;5041128;28;20056;-34
2023/08/07 01:36:16;;;;;;;9.95;6.53;;;;;;;21.66;55.49;101433.59;5039656;28;20056;-35
2023/08/07 01:38:47;;;;;;;10.82;6.40;;;;;;;21.66;55.46;101432.75;5043244;28;20045;-35
2023/08/07 01:41:14;;;;;;;12.73;6.88;;;;;;;21.65;55.33;101431.91;5042433;28;20106;-34
2023/08/07 01:43:40;;;;;;;12.63;6.30;;;;;;;21.64;55.36;101432.09;5041175;28;21580;-35
2023/08/07 01:46:07;;;;;;;11.45;6.18;;;;;;;21.63;55.50;101427.69;5039743;28;20076;-34
2023/08/07 01:48:33;;;;;;;8.80;5.45;;;;;;;21.64;55.76;101440.19;5041549;28;20077;-35
2023/08/07 01:51:00;;;;;;;8.45;5.53;;;;;;;21.62;55.33;101429.53;5038948;28;20131;-35
2023/08/07 01:53:27;;;;;;;10.13;5.95;;;;;;;21.62;55.66;101437.63;5040693;28;20049;-35
2023/08/07 01:55:53;;;;;;;9.82;5.57;;;;;;;21.61;55.47;101429.69;5040901;28;20146;-32
2023/08/07 01:58:20;;;;;;;9.07;5.10;;;;;;;21.61;55.81;101433.25;5040823;28;20045;-32
2023/08/07 02:00:46;;;;;;;9.13;4.80;;;;;;;21.60;55.43;101434.25;5040988;28;20533;-34
2023/08/07 02:03:13;;;;;;;10.05;5.38;;;;;;;21.60;55.62;101430.72;5041681;28;20053;-34
2023/08/07 02:05:40;;;;;;;12.40;6.55;;;;;;;21.60;55.67;101428.03;5040801;28;20052;-35
2023/08/07 02:08:06;;;;;;;8.15;5.25;;;;;;;21.60;55.65;101438.81;5042137;28;20045;-35
2023/08/07 02:10:34;;;;;;;10.93;5.18;;;;;;;21.59;55.42;101442.53;5040973;28;20088;-35
2023/08/07 02:13:00;;;;;;;9.07;4.65;;;;;;;21.58;55.67;101438.13;5038600;28;20048;-33
2023/08/07 02:15:27;;;;;;;9.38;4.93;;;;;;;21.58;55.92;101438.94;5042216;28;20357;-33
2023/08/07 02:17:53;;;;;;;8.38;4.70;;;;;;;21.58;55.80;101438.94;5041067;28;20060;-33
2023/08/07 02:20:20;;;;;;;7.07;4.35;;;;;;;21.57;55.48;101437.28;5043097;28;20053;-33
2023/08/07 02:22:47;;;;;;;7.97;4.80;;;;;;;21.58;55.89;101438.13;5045992;28;20056;-33
2023/08/07 02:25:13;;;;;;;8.13;4.70;;;;;;;21.57;55.67;101442.66;5046349;28;20080;-32
2023/08/07 02:27:40;;;;;;;7.63;4.32;;;;;;;21.57;55.45;101439.97;5045131;28;20041;-33
2023/08/07 02:30:07;;;;;;;9.38;5.10;;;;;;;21.57;55.49;101433.72;5042833;28;20080;-33
2023/08/07 02:32:33;;;;;;;8.60;4.45;;;;;;;21.56;55.89;101438.28;5041784;28;20052;-34
2023/08/07 02:35:00;;;;;;;7.88;4.50;;;;;;;21.56;55.45;101432.91;5039854;28;20059;-34
2023/08/07 02:37:26;;;;;;;10.10;5.25;;;;;;;21.56;55.47;101437.44;5043108;28;20485;-34
2023/08/07 02:39:53;;;;;;;8.80;4.60;;;;;;;21.56;55.74;101440.16;5043309;28;20053;-34
2023/08/07 02:42:20;;;;;;;9.60;4.88;;;;;;;21.56;55.52;101449.06;5039935;28;20115;-34
2023/08/07 02:44:46;;;;;;;6.70;4.15;;;;;;;21.56;55.62;101448.25;5041027;28;20140;-33
2023/08/07 02:47:13;;;;;;;7.10;3.72;;;;;;;21.56;55.63;101450.94;5042682;28;20099;-34
2023/08/07 02:49:40;;;;;;;8.20;4.50;;;;;;;21.55;55.59;101447.41;5041415;28;20051;-34
2023/08/07 02:52:07;;;;;;;7.38;4.03;;;;;;;21.55;55.82;101439.31;5040356;28;20080;-34
2023/08/07 02:54:33;;;;;;;7.00;3.75;;;;;;;21.55;55.76;101439.31;5042308;28;20049;-33
2023/08/07 02:57:00;;;;;;;7.25;3.88;;;;;;;21.55;55.72;101436.59;5046657;28;20049;-34
2023/08/07 02:59:26;;;;;;;9.75;3.95;;;;;;;21.54;55.96;101437.59;5041126;28;20098;-34
2023/08/07 03:01:53;;;;;;;9.63;3.67;;;;;;;21.54;55.53;101431.34;5043799;28;20072;-34
2023/08/07 03:04:19;;;;;;;6.03;3.40;;;;;;;21.55;55.69;101450.09;5038370;28;20151;-34
2023/08/07 03:06:46;;;;;;;9.68;4.13;;;;;;;21.55;55.81;101447.41;5044725;28;20123;-33
2023/08/07 03:09:12;;;;;;;7.20;3.80;;;;;;;;;;5044729;28;20072;-33
2023/08/07 03:11:39;;;;;;;11.27;3.88;;;;;;;21.54;55.70;101451.06;5051204;28;20135;-33
2023/08/07 03:14:05;;;;;;;6.95;3.63;;;;;;;21.55;55.53;101444.69;5049632;28;20045;-34
2023/08/07 03:16:32;;;;;;;6.60;3.42;;;;;;;21.54;55.78;101451.06;5051041;28;20045;-33
2023/08/07 03:18:59;;;;;;;7.35;3.75;;;;;;;21.55;55.69;101455.50;5049402;28;20128;-34
2023/08/07 03:21:25;;;;;;;7.82;3.75;;;;;;;21.56;55.78;101461.72;5041685;28;20085;-34
2023/08/07 03:23:52;;;;;;;8.52;3.78;;;;;;;21.53;55.51;101454.78;5051671;28;20399;-33
2023/08/07 03:26:18;;;;;;;7.43;3.22;;;;;;;21.53;55.91;101452.09;5046890;28;20065;-34
2023/08/07 03:28:46;;;;;;;8.07;3.47;;;;;;;21.53;55.69;101445.84;5046147;28;20310;-34
2023/08/07 03:31:14;;;;;;;4.88;2.80;;;;;;;21.53;55.73;101451.25;5048644;28;20052;-33
2023/08/07 03:33:41;;;;;;;5.32;3.35;;;;;;;21.53;56.02;101453.94;5042703;28;20056;-33
2023/08/07 03:36:09;;;;;;;10.73;4.40;;;;;;;21.51;55.69;101450.56;5040559;28;20152;-33
2023/08/07 03:38:35;;;;;;;7.38;3.17;;;;;;;21.50;55.79;101449.72;5049052;28;20049;-33
2023/08/07 03:41:03;;;;;;;5.55;2.95;;;;;;;21.50;55.44;101443.47;5044584;28;20144;-34
2023/08/07 03:43:29;;;;;;;5.18;3.03;;;;;;;21.50;55.73;101448.88;5038515;28;20054;-33
2023/08/07 03:45:56;;;;;;;6.35;3.30;;;;;;;21.51;55.71;101453.25;5043402;28;20490;-34
2023/08/07 03:48:26;;;;;;;6.47;3.33;;;;;;;21.50;55.54;101449.72;5044629;28;20045;-33
2023/08/07 03:51:01;;;;;;;6.85;2.90;;;;;;;21.49;55.71;101466.91;5035986;28;20060;-34
2023/08/07 03:53:27;;;;;;;4.35;2.83;;;;;;;21.48;55.99;101462.53;5041399;28;20441;-34
2023/08/07 03:55:54;;;;;;;6.03;3.30;;;;;;;21.48;55.70;101462.53;5042789;28;20053;-34
2023/08/07 03:58:20;;;;;;;7.03;3.28;;;;;;;21.48;55.79;101459.84;5042448;28;20076;-34
2023/08/07 04:00:47;;;;;;;6.65;3.17;;;;;;;21.48;55.78;101456.28;5040876;28;20389;-34
2023/08/07 04:03:13;;;;;;;6.93;3.10;;;;;;;21.47;55.55;101450.06;5042948;28;20132;-34
2023/08/07 04:05:40;;;;;;;7.25;3.00;;;;;;;21.46;56.08;101442.94;5041017;28;20146;-33
2023/08/07 04:08:07;;;;;;;5.50;2.90;;;;;;;21.46;55.74;101453.75;5040049;28;20041;-34
2023/08/07 04:10:33;;;;;;;10.60;4.28;;;;;;;21.46;55.70;101456.44;5041390;28;20168;-33
2023/08/07 04:13:00;;;;;;;29.25;6.30;;;;;;;21.45;56.12;101454.75;5039510;28;20077;-33
2023/08/07 04:15:26;;;;;;;27.50;6.90;;;;;;;21.45;56.09;101454.75;5043137;28;20053;-33
2023/08/07 04:17:53;;;;;;;24.85;7.63;;;;;;;21.44;55.94;101445.81;5044396;28;20052;-34
2023/08/07 04:20:20;;;;;;;24.80;7.63;;;;;;;21.45;56.23;101457.44;5044542;28;20049;-33
2023/08/07 04:22:46;;;;;;;24.13;7.07;;;;;;;21.45;56.01;101462.84;5044515;28;20089;-34
2023/08/07 04:25:13;;;;;;;25.88;6.97;;;;;;;21.44;56.31;101455.78;5041730;28;20053;-34
2023/08/07 04:27:40;;;;;;;27.10;8.05;;;;;;;21.43;56.37;101457.63;5038400;28;20388;-34
2023/08/07 04:30:07;;;;;;;28.00;7.47;;;;;;;21.44;55.98;101458.47;5043971;28;20053;-34
2023/08/07 04:32:33;;;;;;;27.90;7.72;;;;;;;21.43;56.08;101460.31;5044704;28;20056;-33
2023/08/07 04:35:00;;;;;;;23.88;7.55;;;;;;;21.43;56.12;101463.00;5042771;28;20513;-33
2023/08/07 04:37:27;;;;;;;21.30;7.80;;;;;;;21.44;55.91;101466.56;5043723;28;20061;-34
2023/08/07 04:39:54;;;;;;;22.35;7.97;;;;;;;21.43;56.35;101464.88;5045971;28;20085;-34
2023/08/07 04:42:21;;;;;;;25.70;8.82;;;;;;;21.42;55.98;101463.16;5045994;28;20037;-33
2023/08/07 04:44:47;;;;;;;26.90;8.80;;;;;;;21.42;55.94;101474.78;5046724;28;20162;-34
2023/08/07 04:47:14;;;;;;;22.95;9.70;;;;;;;21.42;56.08;101466.69;5047452;28;20057;-33
2023/08/07 04:49:40;;;;;;;18.30;8.93;;;;;;;21.42;56.29;101473.94;5043606;28;20073;-34
2023/08/07 04:52:07;;;;;;;17.88;9.05;;;;;;;21.42;56.08;101473.94;5044671;28;20060;-33
2023/08/07 04:54:46;;;;;;;22.20;10.05;;;;;;;21.42;55.90;101479.34;5042585;28;20094;-33
2023/08/07 04:57:12;;;;;;;20.35;10.30;;;;;;;21.43;56.37;101481.06;5039619;28;20171;-34
2023/08/07 04:59:39;;;;;;;29.73;11.75;;;;;;;21.43;55.97;101483.75;5042080;28;20042;-34
2023/08/07 05:02:05;;;;;;;24.65;10.05;;;;;;;21.43;56.12;101483.75;5039125;28;20077;-33
2023/08/07 05:04:32;;;;;;;19.67;10.02;;;;;;;21.42;56.06;101482.88;5042486;28;20072;-34
2023/08/07 05:06:59;;;;;;;22.67;10.68;;;;;;;21.42;56.15;101482.88;5044390;28;20106;-33
2023/08/07 05:09:25;;;;;;;19.70;10.98;;;;;;;21.44;56.09;101485.44;5042796;28;20160;-34
2023/08/07 05:11:52;;;;;;;23.65;11.25;;;;;;;21.43;56.32;101492.69;5045391;28;20080;-34
2023/08/07 05:14:19;;;;;;;20.08;10.48;;;;;;;21.42;55.81;101495.53;5042484;28;20049;-34
2023/08/07 05:16:46;;;;;;;22.02;11.80;;;;;;;21.43;56.42;101492.69;5044057;28;20091;-34
2023/08/07 05:19:12;;;;;;;25.35;11.65;;;;;;;21.43;56.10;101498.06;5039987;28;20038;-34
2023/08/07 05:21:39;;;;;;;23.70;11.65;;;;;;;21.43;55.79;101491.84;5038062;28;20087;-33
2023/08/07 05:24:06;;;;;;;21.27;10.32;;;;;;;21.43;56.19;101498.06;5040523;28;20084;-33
2023/08/07 05:26:32;;;;;;;26.10;11.40;;;;;;;21.45;55.79;101511.38;5036357;28;20040;-34
2023/08/07 05:28:59;;;;;;;32.15;13.10;;;;;;;21.45;56.00;101508.69;5043993;28;20120;-34
2023/08/07 05:31:25;;;;;;;34.55;14.35;;;;;;;21.46;56.27;101513.06;5037052;28;20080;-34
2023/08/07 05:33:55;;;;;;;30.85;15.43;;;;;;;21.46;56.09;101510.38;5039448;28;20072;-34
2023/08/07 05:36:21;;;;;;;32.65;13.35;;;;;;;21.46;56.31;101512.22;5042779;28;20045;-34
2023/08/07 05:38:48;;;;;;;30.10;14.27;;;;;;;21.47;56.04;101512.09;5042583;28;20128;-34
2023/08/07 05:41:14;;;;;;;34.78;15.35;;;;;;;21.47;56.20;101513.91;5043909;28;20184;-34
2023/08/07 05:43:41;;;;;;;32.65;15.18;;;;;;;21.46;55.96;101521.16;5039040;28;20580;-33
2023/08/07 05:46:08;;;;;;;33.33;13.60;;;;;;;21.47;56.11;101522.00;5041583;28;20080;-34
2023/08/07 05:48:35;;;;;;;34.05;14.18;;;;;;;21.48;56.23;101526.41;5045164;28;20052;-34
2023/08/07 05:51:01;;;;;;;32.80;14.82;;;;;;;21.47;55.97;101525.56;5044485;28;20057;-33
2023/08/07 05:53:28;;;;;;;30.98;14.18;;;;;;;21.48;55.99;101543.44;5046678;28;20114;-34
2023/08/07 05:55:55;;;;;;;27.38;13.43;;;;;;;21.48;56.23;101543.44;5042909;28;20118;-34
2023/08/07 05:58:22;;;;;;;27.27;13.07;;;;;;;21.48;55.86;101542.59;5046001;28;20099;-34
2023/08/07 06:00:48;;;;;;;27.95;14.00;;;;;;;21.49;55.72;101549.69;5045189;28;20093;-33
2023/08/07 06:03:15;;;;;;;30.38;13.70;;;;;;;21.49;55.83;101549.69;5038309;28;20441;-33
2023/08/07 06:05:41;;;;;;;27.60;12.57;;;;;;;21.48;55.83;101545.31;5041533;28;20041;-34
2023/08/07 06:08:08;;;;;;;29.15;13.20;;;;;;;21.48;55.79;101551.53;5039570;28;20041;-33
2023/08/07 06:10:35;;;;;;;27.58;12.93;;;;;;;21.49;56.13;101557.78;5044073;28;20053;-34
2023/08/07 06:13:01;;;;;;;26.33;12.52;;;;;;;21.49;55.75;101549.69;5035628;28;20049;-34
2023/08/07 06:15:29;;;;;;;24.88;11.70;;;;;;;21.49;55.88;101552.38;5032437;28;20353;-34
2023/08/07 06:17:56;;;;;;;21.92;11.93;;;;;;;21.49;55.88;101555.06;5034837;28;20052;-34
2023/08/07 06:20:23;;;;;;;21.00;11.57;;;;;;;21.48;55.55;101551.53;5033788;28;20057;-34
2023/08/07 06:22:49;;;;;;;23.17;10.35;;;;;;;21.49;55.66;101555.91;5037386;28;20068;-34
2023/08/07 06:25:16;;;;;;;24.42;10.48;;;;;;;21.50;55.75;101551.38;5035503;28;20130;-34
2023/08/07 06:27:43;;;;;;;20.73;10.15;;;;;;;21.51;55.87;101559.31;5031583;28;20099;-34
2023/08/07 06:30:10;;;;;;;18.77;9.93;;;;;;;21.52;55.60;101555.59;5032414;28;20053;-34
2023/08/07 06:32:36;;;;;;;19.60;10.00;;;;;;;;;;5035818;28;20086;-34
2023/08/07 06:35:04;;;;;;;21.98;10.13;;;;;;;;;;5035459;28;20378;-34
2023/08/07 06:37:31;;;;;;;22.98;9.63;;;;;;;21.56;55.43;101567.78;5034693;28;20061;-34
2023/08/07 06:39:57;;;;;;;18.17;9.35;;;;;;;21.58;55.75;101570.28;5038821;28;20123;-34
2023/08/07 06:42:24;;;;;;;20.73;9.48;;;;;;;21.58;55.39;101576.53;5036314;28;20207;-34
2023/08/07 06:44:51;;;;;;;18.77;9.15;;;;;;;21.59;55.22;101583.66;5040506;28;20057;-34
2023/08/07 06:47:17;;;;;;;16.77;8.68;;;;;;;21.61;55.38;101578.06;5042841;28;20057;-34
2023/08/07 06:49:44;;;;;;;18.55;8.48;;;;;;;21.60;55.10;101571.00;5043924;28;20421;-34
2023/08/07 06:52:10;;;;;;;18.55;8.20;;;;;;;21.61;55.43;101575.38;5039517;28;20071;-34
2023/08/07 06:54:37;;;;;;;17.67;8.00;;;;;;;21.61;55.13;101583.47;5041174;28;20120;-34
2023/08/07 06:57:03;;;;;;;13.25;7.43;;;;;;;21.61;55.19;101578.91;5042151;28;20102;-34
2023/08/07 06:59:30;;;;;;;13.77;7.57;;;;;;;21.61;54.98;101587.00;5043928;28;20046;-34
2023/08/07 07:01:57;;;;;;;17.05;7.90;;;;;;;21.62;55.00;101588.69;5045123;28;20056;-34
2023/08/07 07:04:24;;;;;;;14.23;7.47;;;;;;;21.61;55.13;101587.00;5044524;28;20068;-34
2023/08/07 07:06:50;;;;;;;13.30;7.03;;;;;;;21.61;54.90;101600.50;5044999;28;20088;-33
2023/08/07 07:09:17;;;;;;;18.13;7.35;;;;;;;21.61;55.14;101595.09;5049670;28;20057;-33
2023/08/07 07:11:43;;;;;;;12.65;6.53;;;;;;;21.62;55.21;101598.66;5047858;28;20045;-34
2023/08/07 07:14:10;;;;;;;13.35;6.55;;;;;;;21.61;55.19;101596.97;5045150;28;20044;-33
2023/08/07 07:16:37;;;;;;;12.20;6.60;;;;;;;21.60;55.35;101593.44;5049703;28;20126;-34
2023/08/07 07:19:08;;;;;;;11.77;5.43;;;;;;;21.60;55.15;101596.13;5045702;28;20052;-34
2023/08/07 07:21:34;;;;;;;14.10;5.90;;;;;;;21.60;55.18;101598.81;5041149;28;20139;-34
2023/08/07 07:24:04;;;;;;;15.02;6.63;;;;;;;21.59;55.47;101599.84;5041311;28;20060;-34
2023/08/07 07:26:31;;;;;;;10.80;5.47;;;;;;;21.60;55.28;101609.59;5053126;28;20118;-34
2023/08/07 07:28:58;;;;;;;11.60;6.00;;;;;;;21.61;55.12;101603.19;5044545;28;20084;-34
2023/08/07 07:31:24;;;;;;;10.80;5.57;;;;;;;21.61;55.06;101614.00;5047541;28;20497;-34
2023/08/07 07:33:51;;;;;;;13.13;5.95;;;;;;;21.62;54.99;101623.78;5047617;28;20459;-33
2023/08/07 07:36:21;;;;;;;12.18;5.60;;;;;;;21.63;55.02;101613.84;5047151;28;20053;-34
2023/08/07 07:38:48;;;;;;;11.38;5.28;;;;;;;21.65;55.21;101625.31;5047519;28;20130;-34
2023/08/07 07:41:15;;;;;;;9.90;5.03;;;;;;;21.66;55.32;101632.41;5046884;28;20131;-34
2023/08/07 07:43:42;;;;;;;12.65;5.40;;;;;;;21.67;55.01;101626.88;5048128;28;20147;-34
2023/08/07 07:46:09;;;;;;;9.50;4.57;;;;;;;21.67;55.25;101626.88;5044660;28;20053;-34
2023/08/07 07:48:36;;;;;;;12.20;4.88;;;;;;;21.68;54.86;101628.53;5039068;28;20128;-34
2023/08/07 07:51:04;;;;;;;9.63;4.72;;;;;;;21.70;54.74;101636.47;5045500;28;20098;-34
2023/08/07 07:53:30;;;;;;;10.20;4.57;;;;;;;21.71;55.06;101634.63;5046167;28;20048;-33
2023/08/07 07:55:57;;;;;;;9.30;3.85;;;;;;;21.71;54.76;101630.09;5044064;28;20056;-33
2023/08/07 07:58:24;;;;;;;9.98;4.65;;;;;;;21.72;54.68;101633.63;5044009;28;20088;-33
2023/08/07 08:00:53;;;;;;;10.02;4.47;;;;;;;21.72;54.77;101644.44;5046675;28;20152;-34
2023/08/07 08:03:21;;;;;;;9.45;4.30;;;;;;;21.73;54.76;101656.91;5044617;28;20057;-34
2023/08/07 08:05:51;;;;;;;8.95;3.70;;;;;;;21.73;54.59;101656.91;5040932;28;20425;-34
2023/08/07 08:08:18;;;;;;;11.60;4.22;;;;;;;21.74;54.63;101661.28;5047455;28;20080;-34
2023/08/07 08:10:47;;;;;;;6.80;4.07;;;;;;;21.74;54.78;101669.38;5041158;28;20138;-34
2023/08/07 08:13:15;;;;;;;9.30;3.65;;;;;;;21.76;54.54;101675.47;5041491;28;20353;-34
2023/08/07 08:15:42;;;;;;;6.97;3.85;;;;;;;21.76;54.45;101668.22;5042311;28;20041;-34
2023/08/07 08:18:09;;;;;;;9.13;3.45;;;;;;;21.76;54.21;101668.22;5040628;28;20053;-34
2023/08/07 08:20:36;;;;;;;9.05;3.45;;;;;;;21.77;54.40;101674.47;5036390;28;20072;-34
2023/08/07 08:23:04;;;;;;;9.13;3.47;;;;;;;21.77;54.06;101671.78;5039180;28;20049;-34
2023/08/07 08:25:32;;;;;;;9.95;3.53;;;;;;;21.78;54.19;101673.47;5040724;28;20049;-34
2023/08/07 08:28:00;;;;;;;9.38;3.17;;;;;;;21.78;54.15;101674.31;5042196;28;20382;-34
2023/08/07 08:30:27;;;;;;;7.95;3.10;;;;;;;21.78;54.35;101674.31;5047477;28;20181;-34
2023/08/07 08:32:54;;;;;;;9.32;3.30;;;;;;;21.82;54.08;101691.03;5045789;28;20052;-34
2023/08/07 08:35:21;;;;;;;9.80;3.40;;;;;;;21.83;53.90;101681.91;5042399;28;20099;-34
2023/08/07 08:37:47;;;;;;;8.68;3.03;;;;;;;21.83;53.51;101690.00;5045496;28;20132;-34
2023/08/07 08:40:16;;;;;;;7.72;2.97;;;;;;;21.84;53.69;101680.94;5040682;28;20088;-34
2023/08/07 08:42:45;;;;;;;9.07;2.83;;;;;;;21.84;53.43;101700.69;5046903;28;20049;-34
2023/08/07 08:45:14;;;;;;;7.40;3.13;;;;;;;21.85;53.51;101691.56;5042303;28;20136;-34
2023/08/07 08:47:43;;;;;;;6.68;2.58;;;;;;;21.87;53.42;101699.50;5042904;28;20087;-34
2023/08/07 08:50:14;;;;;;;7.03;2.80;;;;;;;21.89;53.35;101705.59;5041876;28;20057;-34
2023/08/07 08:52:44;;;;;;;9.88;3.00;;;;;;;21.89;53.18;101694.78;5045040;28;20132;-34
2023/08/07 08:55:12;;;;;;;7.13;2.80;;;;;;;21.89;53.58;101709.13;5042420;28;20054;-34
2023/08/07 08:57:39;;;;;;;6.47;2.85;;;;;;;21.91;53.33;101706.28;5042082;28;20390;-34
2023/08/07 09:00:15;;;;;;;9.65;2.80;;;;;;;21.91;53.23;101723.34;5047723;28;20842;-34
2023/08/07 09:02:43;;;;;;;5.57;2.72;;;;;;;21.91;53.05;101723.34;5046998;28;20137;-34
2023/08/07 09:05:10;;;;;;;9.75;3.25;;;;;;;21.91;53.23;101723.34;5040458;28;20136;-34
2023/08/07 09:07:37;;;;;;;5.88;2.63;;;;;;;21.91;53.31;101722.50;5047415;28;20323;-34
2023/08/07 09:10:05;;;;;;;8.82;2.70;;;;;;;21.90;53.06;101724.31;5044885;28;20053;-34
2023/08/07 09:12:33;;;;;;;6.28;2.97;;;;;;;21.90;53.05;101726.16;5041260;28;20049;-34
2023/08/07 09:15:04;;;;;;;8.15;3.28;;;;;;;21.88;53.11;101723.63;5043237;28;20409;-34
2023/08/07 09:17:35;;;;;;;6.43;2.38;;;;;;;21.89;53.15;101721.78;5040721;28;20059;-34
2023/08/07 09:20:03;;;;;;;7.68;2.67;;;;;;;21.89;53.28;101735.28;5042426;28;20049;-33
2023/08/07 09:22:30;;;;;;;6.68;3.05;;;;;;;21.90;53.27;101736.97;5045081;28;20593;-34
2023/08/07 09:24:59;;;;;;;4.70;1.80;;;;;;;21.91;53.37;101736.00;5045956;28;20061;-34
2023/08/07 09:27:26;;;;;;;5.63;2.00;;;;;;;21.92;53.05;101734.97;5045749;28;20045;-34
2023/08/07 09:29:54;;;;;;;6.05;2.72;;;;;;;21.92;53.43;101732.28;5043553;28;20099;-34
2023/08/07 09:32:23;;;;;;;5.93;2.13;;;;;;;21.93;53.16;101724.00;5044827;28;20076;-34
2023/08/07 09:34:54;;;;;;;6.15;2.42;;;;;;;21.96;53.26;101714.75;5041387;28;20150;-34
2023/08/07 09:37:23;;;;;;;7.03;2.35;;;;;;;21.97;53.29;101721.84;5039597;28;20486;-34
2023/08/07 09:39:51;;;;;;;6.22;2.40;;;;;;;21.99;53.27;101727.06;5041224;28;20053;-34
2023/08/07 09:42:17;;;;;;;4.85;2.17;;;;;;;22.00;53.08;101726.09;5044093;28;20052;-34
2023/08/07 09:44:46;;;;;;;5.30;1.98;;;;;;;22.01;53.15;101733.19;5047709;28;20118;-34
2023/08/07 09:47:14;;;;;;;7.30;2.47;;;;;;;22.03;53.22;101733.84;5045532;28;20053;-34
2023/08/07 09:49:42;;;;;;;6.72;2.40;;;;;;;22.02;52.99;101735.69;5041659;28;20424;-34
2023/08/07 09:52:10;;;;;;;8.32;2.75;;;;;;;22.03;53.13;101744.66;5040136;28;20049;-34
2023/08/07 09:54:37;;;;;;;4.05;2.20;;;;;;;22.03;52.93;101748.22;5041955;28;20049;-34
2023/08/07 09:57:04;;;;;;;10.77;2.78;;;;;;;22.03;52.74;101759.03;5045493;28;20084;-34
2023/08/07 09:59:35;;;;;;;7.55;2.35;;;;;;;22.04;53.02;101754.47;5036045;28;20065;-34
2023/08/07 10:02:03;;;;;;;7.20;1.85;;;;;;;22.04;52.83;101754.47;5042665;28;20049;-34
2023/08/07 10:04:30;;;;;;;6.07;2.55;;;;;;;22.04;52.73;101751.75;5041228;28;20071;-34
2023/08/07 10:06:58;;;;;;;5.50;2.40;;;;;;;22.04;52.90;101754.47;5033153;28;20049;-34
2023/08/07 10:09:27;;;;;;;7.72;2.00;;;;;;;22.04;52.70;101754.47;5042274;28;20049;-34
2023/08/07 10:11:54;;;;;;;4.05;1.80;;;;;;;22.04;52.83;101760.72;5042931;28;20087;-34
2023/08/07 10:14:22;;;;;;;3.80;1.60;;;;;;;22.04;52.83;101758.00;5040600;28;21548;-34
2023/08/07 10:16:49;;;;;;;6.28;2.22;;;;;;;22.05;52.75;101764.25;5042108;28;20075;-34
2023/08/07 10:19:15;;;;;;;6.82;2.05;;;;;;;22.05;52.98;101759.69;5044016;28;20049;-34
2023/08/07 10:21:43;;;;;;;5.88;1.98;;;;;;;22.07;52.89;101767.63;5044099;28;20091;-34
2023/08/07 10:24:11;;;;;;;5.63;1.88;;;;;;;22.06;52.71;101766.78;5041532;28;20344;-34
2023/08/07 10:26:44;;;;;;;12.77;2.22;;;;;;;22.06;52.81;101774.88;5042127;28;20114;-34
2023/08/07 10:29:14;;;;;;;4.25;2.00;;;;;;;22.08;53.13;101785.53;5043471;28;20052;-34
2023/08/07 10:31:43;;;;;;;7.35;2.05;;;;;;;22.08;52.61;101774.75;5045471;28;20110;-34
2023/08/07 10:34:10;;;;;;;5.50;1.67;;;;;;;22.08;52.55;101767.47;5042908;28;20056;-34
2023/08/07 10:36:38;;;;;;;10.65;2.15;;;;;;;22.08;52.39;101791.78;5046919;28;20107;-34
2023/08/07 10:39:08;;;;;;;4.30;1.70;;;;;;;22.09;52.22;101785.38;5047980;28;20052;-34
2023/08/07 10:41:39;;;;;;;6.78;2.08;;;;;;;22.08;52.52;101785.53;5046716;28;20404;-34
2023/08/07 10:44:26;;;;;;;4.13;1.95;;;;;;;22.09;52.27;101785.38;5046651;28;20156;-34
2023/08/07 10:46:54;;;;;;;5.45;2.05;;;;;;;22.10;52.48;101778.97;5046166;28;20057;-34
2023/08/07 10:49:38;;;;;;;6.35;2.17;;;;;;;22.12;52.45;101781.53;5041717;28;20088;-34
2023/08/07 10:52:14;;;;;;;5.00;1.80;;;;;;;22.12;52.23;101778.81;5040741;28;20053;-34
2023/08/07 10:54:45;;;;;;;4.95;2.20;;;;;;;22.12;52.17;101779.66;5050457;28;20122;-34
2023/08/07 10:57:13;;;;;;;6.30;2.25;;;;;;;22.14;52.23;101793.03;5045786;28;20080;-34
2023/08/07 10:59:55;;;;;;;6.45;1.92;;;;;;;22.13;51.91;101781.38;5047120;28;20041;-34
2023/08/07 11:02:30;;;;;;;6.93;1.85;;;;;;;22.15;52.05;101792.88;5041218;28;20096;-34
2023/08/07 11:04:57;;;;;;;7.35;2.30;;;;;;;22.17;51.94;101784.63;5047221;28;20500;-34
2023/08/07 11:07:28;;;;;;;6.35;2.38;;;;;;;22.17;51.86;101795.41;5046835;28;20045;-34
2023/08/07 11:09:56;;;;;;;5.55;1.85;;;;;;;22.18;51.81;101797.94;5043751;28;20045;-34
2023/08/07 11:12:29;;;;;;;5.80;2.08;;;;;;;22.21;51.80;101795.94;5044059;28;20132;-34
2023/08/07 11:14:59;;;;;;;9.55;2.45;;;;;;;22.21;51.92;101796.78;5044116;28;20045;-34
2023/08/07 11:17:26;;;;;;;5.60;1.90;;;;;;;22.22;51.92;101794.94;5045146;28;20049;-34
2023/08/07 11:19:55;;;;;;;6.07;2.08;;;;;;;22.23;51.79;101796.63;5039549;28;20049;-34
2023/08/07 11:22:22;;;;;;;6.55;2.30;;;;;;;22.23;51.75;101799.31;5044920;28;20064;-34
2023/08/07 11:24:50;;;;;;;4.95;1.92;;;;;;;22.27;51.43;101789.91;5050619;28;20094;-34